Time;durP1;ratioP1;P1;durP2;ratioP2;P2;SDS_P1;SDS_P2;PMS_P1;PMS_P2;Temp;Humidity;BMP_temperature;BMP_pressure;BME280_temperature;BME280_humidity;BME280_pressure;Samples;Min_cycle;Max_cycle;Signal;HPM_P1;HPM_P2
2021/08/29 00:03:17;;;;;;;6.37;3.00;;;;;;;;;;10287627;28;20046;-66
2021/08/29 00:08:15;;;;;;;4.97;3.40;;;;;;;;;;10279041;28;20033;-66
2021/08/29 00:13:12;;;;;;;5.40;3.00;;;;;;;;;;10268593;28;20037;-65
2021/08/29 00:18:09;;;;;;;6.07;4.20;;;;;;;;;;10274387;28;20568;-65
2021/08/29 00:23:07;;;;;;;2.40;1.77;;;;;;;;;;10261838;28;20041;-66
2021/08/29 00:28:04;;;;;;;4.97;1.73;;;;;;;;;;10284959;28;20061;-64
2021/08/29 00:33:02;;;;;;;4.60;3.30;;;;;;;;;;10300524;28;20032;-64
2021/08/29 00:37:59;;;;;;;6.00;3.63;;;;;;;;;;10286391;28;20328;-64
2021/08/29 00:42:57;;;;;;;8.37;4.13;;;;;;;;;;10250506;28;20133;-65
2021/08/29 00:47:54;;;;;;;7.33;3.00;;;;;;;;;;10265600;28;20025;-66
2021/08/29 00:52:52;;;;;;;8.32;3.60;;;;;;;;;;10284079;28;20044;-64
2021/08/29 00:57:53;;;;;;;5.28;4.00;;;;;;;;;;10258984;28;20450;-66
2021/08/29 01:02:54;;;;;;;7.22;3.90;;;;;;;;;;10273502;28;20033;-65
2021/08/29 01:08:01;;;;;;;9.20;4.25;;;;;;;;;;10290372;28;20068;-63
2021/08/29 01:12:59;;;;;;;6.35;3.40;;;;;;;;;;10288800;28;20025;-65
2021/08/29 01:17:57;;;;;;;2.03;1.27;;;;;;;;;;10274828;28;20026;-65
2021/08/29 01:22:56;;;;;;;6.47;3.55;;;;;;;;;;10280889;28;20422;-66
2021/08/29 01:28:00;;;;;;;6.73;2.73;;;;;;;;;;10269803;28;20053;-65
2021/08/29 01:32:59;;;;;;;5.07;2.13;;;;;;;;;;10257883;28;20828;-65
2021/08/29 01:37:58;;;;;;;6.63;3.53;;;;;;;;;;10255919;28;20471;-63
2021/08/29 01:42:56;;;;;;;1.93;1.13;;;;;;;;;;10264762;28;20073;-65
2021/08/29 01:47:54;;;;;;;;;;;;;;;;;;10262814;28;20526;-65
2021/08/29 01:52:52;;;;;;;10.13;3.60;;;;;;;;;;10279949;28;19914;-65
2021/08/29 01:58:13;;;;;;;6.28;2.58;;;;;;;;;;10286509;28;20033;-64
2021/08/29 02:03:10;;;;;;;1.27;1.10;;;;;;;;;;10266187;28;20087;-66
2021/08/29 02:08:09;;;;;;;7.30;3.05;;;;;;;;;;10268663;28;20397;-65
2021/08/29 02:13:10;;;;;;;2.23;1.27;;;;;;;;;;10288745;28;20038;-63
2021/08/29 02:18:09;;;;;;;4.03;1.02;;;;;;;;;;10284146;28;20033;-66
2021/08/29 02:23:09;;;;;;;9.27;3.38;;;;;;;;;;10272010;28;20556;-64
2021/08/29 02:28:06;;;;;;;2.77;2.07;;;;;;;;;;10290823;28;20099;-66
2021/08/29 02:33:04;;;;;;;8.17;2.10;;;;;;;;;;10278134;28;20034;-64
2021/08/29 02:38:03;;;;;;;4.53;3.10;;;;;;;;;;10261715;28;20116;-65
2021/08/29 02:43:01;;;;;;;5.38;3.60;;;;;;;;;;10270725;28;20352;-65
2021/08/29 02:48:02;;;;;;;10.80;4.15;;;;;;;;;;10262610;28;20038;-65
2021/08/29 02:53:07;;;;;;;8.38;3.47;;;;;;;;;;10259864;28;20030;-66
2021/08/29 02:58:06;;;;;;;5.60;3.37;;;;;;;;;;10270102;28;20025;-64
2021/08/29 03:03:29;;;;;;;2.40;1.40;;;;;;;;;;10290234;28;20427;-64
2021/08/29 03:08:27;;;;;;;6.93;3.57;;;;;;;;;;10317912;28;20056;-65
2021/08/29 03:13:27;;;;;;;4.67;3.33;;;;;;;;;;10293722;28;20044;-65
2021/08/29 03:18:33;;;;;;;8.23;2.57;;;;;;;;;;10293737;28;20037;-66
2021/08/29 03:23:38;;;;;;;6.47;3.53;;;;;;;;;;10263668;28;20357;-63
2021/08/29 03:28:35;;;;;;;4.80;2.80;;;;;;;;;;10247231;28;20084;-65
2021/08/29 03:33:34;;;;;;;7.33;3.37;;;;;;;;;;10289032;28;20033;-65
2021/08/29 03:38:33;;;;;;;4.50;1.48;;;;;;;;;;10296842;28;20083;-64
2021/08/29 03:43:31;;;;;;;3.17;2.45;;;;;;;;;;10272664;28;20095;-66
2021/08/29 03:48:29;;;;;;;7.10;3.35;;;;;;;;;;10268498;28;20120;-65
2021/08/29 03:53:28;;;;;;;5.80;2.97;;;;;;;;;;10291156;28;20044;-63
2021/08/29 03:58:26;;;;;;;7.03;3.75;;;;;;;;;;10298901;28;20095;-66
2021/08/29 04:03:24;;;;;;;11.03;3.87;;;;;;;;;;10293712;28;20069;-65
2021/08/29 04:08:43;;;;;;;6.05;2.83;;;;;;;;;;10310588;28;20045;-65
2021/08/29 04:13:40;;;;;;;3.85;2.30;;;;;;;;;;10303847;28;20030;-64
2021/08/29 04:18:45;;;;;;;7.00;2.40;;;;;;;;;;10308660;28;20048;-66
2021/08/29 04:23:45;;;;;;;6.68;3.28;;;;;;;;;;10284352;28;20037;-65
2021/08/29 04:28:43;;;;;;;5.07;2.53;;;;;;;;;;10283221;28;20025;-64
2021/08/29 04:33:41;;;;;;;3.63;2.33;;;;;;;;;;10321450;28;20112;-64
2021/08/29 04:39:08;;;;;;;2.97;1.35;;;;;;;;;;10294755;28;20048;-63
2021/08/29 04:44:10;;;;;;;2.47;0.93;;;;;;;;;;10292175;28;20045;-62
2021/08/29 04:49:08;;;;;;;4.55;1.73;;;;;;;;;;10280385;28;20026;-65
2021/08/29 04:54:06;;;;;;;5.93;2.33;;;;;;;;;;10307987;28;20120;-64
2021/08/29 04:59:05;;;;;;;5.88;1.95;;;;;;;;;;10302519;28;20211;-62
2021/08/29 05:04:04;;;;;;;5.03;1.63;;;;;;;;;;10287004;28;20026;-63
2021/08/29 05:09:02;;;;;;;;;;;;;;;;;;10287144;28;20056;-63
2021/08/29 05:13:59;;;;;;;2.50;1.05;;;;;;;;;;10292318;28;19923;-63
2021/08/29 05:18:57;;;;;;;2.80;2.03;;;;;;;;;;10261531;28;20026;-63
2021/08/29 05:23:55;;;;;;;3.17;1.00;;;;;;;;;;10256993;28;20041;-63
2021/08/29 05:28:57;;;;;;;1.33;0.85;;;;;;;;;;10265443;28;20121;-61
2021/08/29 05:33:56;;;;;;;3.47;0.80;;;;;;;;;;10281639;28;20206;-64
2021/08/29 05:38:54;;;;;;;;;;;;;;;;;;10268195;28;20037;-63
2021/08/29 05:44:12;;;;;;;2.53;1.17;;;;;;;;;;10280797;28;19921;-63
2021/08/29 05:49:11;;;;;;;2.58;0.82;;;;;;;;;;10247884;28;20025;-64
2021/08/29 05:54:09;;;;;;;2.40;1.17;;;;;;;;;;10265202;28;20080;-66
2021/08/29 05:59:06;;;;;;;0.90;0.80;;;;;;;;;;10260097;28;20507;-64
2021/08/29 06:04:03;;;;;;;1.40;0.70;;;;;;;;;;10255703;28;20053;-66
2021/08/29 06:09:30;;;;;;;2.92;1.20;;;;;;;;;;10266546;28;20077;-66
2021/08/29 06:14:27;;;;;;;0.87;0.57;;;;;;;;;;10256804;28;20064;-65
2021/08/29 06:19:29;;;;;;;1.52;0.68;;;;;;;;;;10268530;28;20045;-66
2021/08/29 06:24:28;;;;;;;4.55;1.00;;;;;;;;;;10235758;28;20061;-65
2021/08/29 06:29:44;;;;;;;1.15;0.88;;;;;;;;;;10274889;28;20030;-63
2021/08/29 06:35:00;;;;;;;0.60;0.55;;;;;;;;;;10271051;28;20026;-62
2021/08/29 06:40:06;;;;;;;1.70;0.90;;;;;;;;;;10267790;28;20037;-64
2021/08/29 06:45:04;;;;;;;2.13;1.07;;;;;;;;;;10254023;28;20030;-64
2021/08/29 06:50:24;;;;;;;1.10;0.70;;;;;;;;;;10240184;28;20515;-62
2021/08/29 06:55:40;;;;;;;1.60;0.85;;;;;;;;;;10274267;28;20141;-62
2021/08/29 07:00:58;;;;;;;0.85;0.63;;;;;;;;;;10231596;28;20559;-64
2021/08/29 07:05:55;;;;;;;2.07;0.90;;;;;;;;;;10268288;28;20029;-65
2021/08/29 07:11:11;;;;;;;1.40;0.70;;;;;;;;;;10251667;28;20076;-62
2021/08/29 07:16:41;;;;;;;3.22;0.90;;;;;;;;;;10240918;28;20072;-64
2021/08/29 07:21:39;;;;;;;3.33;0.90;;;;;;;;;;10229428;28;20044;-63
2021/08/29 07:26:59;;;;;;;3.00;1.00;;;;;;;;;;10278655;28;20573;-63
2021/08/29 07:32:15;;;;;;;4.97;0.82;;;;;;;;;;10256981;28;21652;-64
2021/08/29 07:37:13;;;;;;;0.35;0.32;;;;;;;;;;10262728;28;20454;-65
2021/08/29 07:42:11;;;;;;;1.40;1.00;;;;;;;;;;10261045;28;20083;-66
2021/08/29 07:47:08;;;;;;;1.43;0.63;;;;;;;;;;10262449;28;20513;-63
2021/08/29 07:52:06;;;;;;;1.20;0.67;;;;;;;;;;10244371;28;20033;-62
2021/08/29 07:57:18;;;;;;;1.58;0.75;;;;;;;;;;10246748;28;20038;-67
2021/08/29 08:02:17;;;;;;;2.03;0.55;;;;;;;;;;10171971;28;20128;-68
2021/08/29 08:07:34;;;;;;;0.70;0.17;;;;;;;;;;10173414;28;20988;-63
2021/08/29 08:12:50;;;;;;;1.27;0.80;;;;;;;;;;10184387;28;20128;-64
2021/08/29 08:17:47;;;;;;;1.23;0.73;;;;;;;;;;10167604;28;20034;-66
2021/08/29 08:22:47;;;;;;;0.63;0.60;;;;;;;;;;10254754;28;20128;-63
2021/08/29 08:27:56;;;;;;;1.20;0.60;;;;;;;;;;10255247;28;20080;-64
2021/08/29 08:33:11;;;;;;;0.10;0.10;;;;;;;;;;10275297;28;20045;-63
2021/08/29 08:38:28;;;;;;;0.82;0.50;;;;;;;;;;10269864;28;20120;-63
2021/08/29 08:43:34;;;;;;;0.50;0.50;;;;;;;;;;10262944;28;20042;-66
2021/08/29 08:48:51;;;;;;;0.35;0.32;;;;;;;;;;10284114;28;20420;-62
2021/08/29 08:54:07;;;;;;;0.77;0.28;;;;;;;;;;10276990;28;20037;-62
2021/08/29 08:59:23;;;;;;;0.40;0.35;;;;;;;;;;10273788;28;20042;-63
2021/08/29 09:04:40;;;;;;;1.30;0.77;;;;;;;;;;10276190;28;20438;-64
2021/08/29 09:09:38;;;;;;;1.15;0.57;;;;;;;;;;10260630;28;20053;-64
2021/08/29 09:14:44;;;;;;;0.52;0.52;;;;;;;;;;10262115;28;20112;-64
2021/08/29 09:19:44;;;;;;;0.43;0.43;;;;;;;;;;10251783;28;20028;-62
2021/08/29 09:24:51;;;;;;;0.70;0.63;;;;;;;;;;10249577;28;20467;-61
2021/08/29 09:30:07;;;;;;;0.38;0.25;;;;;;;;;;10273842;28;20076;-61
2021/08/29 09:35:07;;;;;;;1.50;0.40;;;;;;;;;;10256253;28;20033;-63
2021/08/29 09:40:24;;;;;;;1.15;0.60;;;;;;;;;;10270553;28;20100;-63
2021/08/29 09:45:44;;;;;;;0.63;0.63;;;;;;;;;;10261851;28;20057;-63
2021/08/29 09:51:01;;;;;;;3.00;0.80;;;;;;;;;;10231437;28;20037;-63
2021/08/29 09:56:27;;;;;;;0.50;0.50;;;;;;;;;;10284891;28;20144;-63
2021/08/29 10:01:59;;;;;;;1.23;0.80;;;;;;;;;;10255756;28;20041;-62
2021/08/29 10:07:23;;;;;;;1.08;0.82;;;;;;;;;;10265753;28;20037;-62
2021/08/29 10:12:21;;;;;;;1.27;1.00;;;;;;;;;;10260014;28;20029;-62
2021/08/29 10:17:19;;;;;;;1.17;0.88;;;;;;;;;;10251034;28;20627;-62
2021/08/29 10:22:51;;;;;;;2.63;0.77;;;;;;;;;;10269274;28;20034;-62
2021/08/29 10:27:50;;;;;;;2.03;0.52;;;;;;;;;;10253350;28;20030;-61
2021/08/29 10:33:15;;;;;;;1.08;0.88;;;;;;;;;;10263433;28;20609;-62
2021/08/29 10:38:22;;;;;;;1.17;0.80;;;;;;;;;;10254994;28;20034;-62
2021/08/29 10:43:39;;;;;;;1.58;0.80;;;;;;;;;;10272892;28;20050;-61
2021/08/29 10:48:56;;;;;;;0.60;0.60;;;;;;;;;;10259317;28;20053;-62
2021/08/29 10:54:09;;;;;;;1.75;0.60;;;;;;;;;;10255669;28;20727;-61
2021/08/29 10:59:07;;;;;;;1.15;0.90;;;;;;;;;;10275322;28;20116;-62
2021/08/29 11:04:35;;;;;;;1.00;0.68;;;;;;;;;;10255879;28;20045;-61
2021/08/29 11:09:38;;;;;;;1.20;1.10;;;;;;;;;;10261479;28;20041;-62
2021/08/29 11:14:41;;;;;;;1.52;1.10;;;;;;;;;;10267355;28;20026;-64
2021/08/29 11:19:40;;;;;;;0.95;0.77;;;;;;;;;;10271917;28;20037;-63
2021/08/29 11:25:02;;;;;;;1.10;0.73;;;;;;;;;;10283243;28;20057;-63
2021/08/29 11:30:04;;;;;;;0.75;0.73;;;;;;;;;;10250873;28;20045;-64
2021/08/29 11:35:08;;;;;;;1.25;0.70;;;;;;;;;;10276509;28;20045;-63
2021/08/29 11:40:12;;;;;;;1.38;0.98;;;;;;;;;;10273943;28;20084;-67
2021/08/29 11:45:11;;;;;;;2.42;1.25;;;;;;;;;;10269612;28;20049;-66
2021/08/29 11:50:10;;;;;;;1.30;0.80;;;;;;;;;;10251436;28;20049;-64
2021/08/29 11:55:38;;;;;;;2.63;1.55;;;;;;;;;;10259181;28;20038;-65
2021/08/29 12:00:37;;;;;;;2.10;1.33;;;;;;;;;;10265140;28;20049;-65
2021/08/29 12:05:57;;;;;;;4.15;1.80;;;;;;;;;;10256853;28;20538;-65
2021/08/29 12:11:13;;;;;;;2.90;1.33;;;;;;;;;;10256571;28;20514;-66
2021/08/29 12:16:29;;;;;;;1.95;1.38;;;;;;;;;;10281437;28;20034;-65
2021/08/29 12:21:37;;;;;;;2.50;1.63;;;;;;;;;;10275007;28;20049;-67
2021/08/29 12:27:00;;;;;;;6.00;1.38;;;;;;;;;;10277102;28;20277;-65
2021/08/29 12:32:05;;;;;;;2.17;1.45;;;;;;;;;;10240304;28;20041;-62
2021/08/29 12:37:11;;;;;;;2.50;1.10;;;;;;;;;;10326186;23;20052;-66
2021/08/29 12:42:16;;;;;;;2.05;1.23;;;;;;;;;;10323933;28;20041;-66
2021/08/29 12:47:19;;;;;;;2.28;1.42;;;;;;;;;;10309204;28;20362;-67
2021/08/29 12:52:39;;;;;;;4.30;2.00;;;;;;;;;;10295174;28;20517;-66
2021/08/29 12:57:36;;;;;;;3.40;2.17;;;;;;;;;;10325483;28;20252;-65
2021/08/29 13:02:38;;;;;;;2.47;1.60;;;;;;;;;;10327596;28;20037;-65
2021/08/29 13:07:46;;;;;;;2.42;1.40;;;;;;;;;;10321744;28;20123;-66
2021/08/29 13:12:44;;;;;;;1.35;1.25;;;;;;;;;;10326194;28;20128;-65
2021/08/29 13:17:47;;;;;;;3.33;1.55;;;;;;;;;;10322975;28;20107;-66
2021/08/29 13:22:47;;;;;;;2.72;1.30;;;;;;;;;;10335627;28;20034;-63
2021/08/29 13:27:45;;;;;;;3.00;1.92;;;;;;;;;;10335696;28;20033;-63
2021/08/29 13:32:43;;;;;;;2.75;1.52;;;;;;;;;;10323593;28;20029;-66
2021/08/29 13:37:44;;;;;;;3.08;2.33;;;;;;;;;;10331645;28;20040;-65
2021/08/29 13:42:48;;;;;;;2.20;1.65;;;;;;;;;;10334378;28;20041;-65
2021/08/29 13:47:45;;;;;;;2.72;1.35;;;;;;;;;;10292620;28;20447;-66
2021/08/29 13:52:43;;;;;;;2.90;1.55;;;;;;;;;;10324481;28;20156;-67
2021/08/29 13:57:41;;;;;;;1.40;1.30;;;;;;;;;;10344483;28;20115;-67
2021/08/29 14:02:38;;;;;;;1.42;1.30;;;;;;;;;;10322878;28;20042;-65
2021/08/29 14:07:36;;;;;;;3.43;1.77;;;;;;;;;;10332932;28;20040;-66
2021/08/29 14:12:33;;;;;;;4.45;1.45;;;;;;;;;;10320603;28;20043;-66
2021/08/29 14:17:31;;;;;;;;;;;;;;;;;;10324644;28;20059;-66
2021/08/29 14:22:28;;;;;;;4.43;2.35;;;;;;;;;;10332275;28;19916;-66
2021/08/29 14:27:26;;;;;;;18.43;6.10;;;;;;;;;;10320704;28;20558;-66
2021/08/29 14:32:23;;;;;;;14.20;4.60;;;;;;;;;;10339341;28;20311;-66
2021/08/29 14:37:20;;;;;;;;;;;;;;;;;;10335736;28;20433;-66
2021/08/29 14:42:18;;;;;;;11.38;3.20;;;;;;;;;;10318907;28;19925;-67
2021/08/29 14:47:15;;;;;;;;;;;;;;;;;;10341886;28;20021;-66
2021/08/29 14:52:12;;;;;;;8.50;3.42;;;;;;;;;;10329831;28;19960;-67
2021/08/29 14:57:10;;;;;;;12.05;2.83;;;;;;;;;;10325998;28;20075;-66
2021/08/29 15:02:08;;;;;;;9.67;5.57;;;;;;;;;;10332206;28;20668;-65
2021/08/29 15:07:05;;;;;;;7.45;4.28;;;;;;;;;;10334913;28;20083;-66
2021/08/29 15:12:03;;;;;;;;;;;;;;;;;;10334361;28;20386;-66
2021/08/29 15:17:01;;;;;;;11.45;3.13;;;;;;;;;;10346733;28;19913;-66
2021/08/29 15:21:58;;;;;;;3.50;2.17;;;;;;;;;;10353866;28;20047;-66
2021/08/29 15:26:56;;;;;;;2.97;1.27;;;;;;;;;;10336634;28;20032;-66
2021/08/29 15:31:54;;;;;;;4.63;2.42;;;;;;;;;;10314469;28;20039;-66
2021/08/29 15:36:52;;;;;;;7.60;3.00;;;;;;;;;;10325052;28;20414;-66
2021/08/29 15:41:55;;;;;;;;;;;;;;;;;;10304813;28;20511;-66
2021/08/29 15:46:52;;;;;;;4.32;2.25;;;;;;;;;;10319031;28;19921;-66
2021/08/29 15:51:50;;;;;;;2.72;2.53;;;;;;;;;;10332811;28;20032;-66
2021/08/29 15:56:47;;;;;;;3.70;1.67;;;;;;;;;;10336414;28;20892;-66
2021/08/29 16:01:45;;;;;;;6.10;2.73;;;;;;;;;;10325513;28;20630;-66
2021/08/29 16:06:42;;;;;;;6.73;2.70;;;;;;;;;;10315180;28;20024;-66
2021/08/29 16:11:40;;;;;;;7.27;2.97;;;;;;;;;;10328581;28;20033;-66
2021/08/29 16:16:38;;;;;;;5.72;2.70;;;;;;;;;;10333084;28;20032;-66
2021/08/29 16:21:36;;;;;;;5.13;3.05;;;;;;;;;;10320884;28;20037;-66
2021/08/29 16:26:33;;;;;;;3.63;1.80;;;;;;;;;;10329518;28;20112;-65
2021/08/29 16:31:30;;;;;;;5.37;2.70;;;;;;;;;;10324434;28;20417;-66
2021/08/29 16:36:28;;;;;;;5.40;2.67;;;;;;;;;;10307563;28;20110;-66
2021/08/29 16:41:25;;;;;;;5.30;2.43;;;;;;;;;;10321186;28;20033;-66
2021/08/29 16:46:23;;;;;;;5.50;2.90;;;;;;;;;;10328049;28;20208;-66
2021/08/29 16:51:20;;;;;;;6.87;2.90;;;;;;;;;;10323882;28;20415;-66
2021/08/29 16:56:17;;;;;;;5.10;2.53;;;;;;;;;;10342261;28;20049;-66
2021/08/29 17:01:15;;;;;;;4.00;2.10;;;;;;;;;;10324128;28;20037;-67
2021/08/29 17:06:12;;;;;;;7.43;2.73;;;;;;;;;;10344075;28;20065;-66
2021/08/29 17:11:10;;;;;;;7.23;2.70;;;;;;;;;;10315671;28;20067;-66
2021/08/29 17:16:07;;;;;;;8.27;2.83;;;;;;;;;;10354375;28;20505;-66
2021/08/29 17:21:07;;;;;;;5.72;3.15;;;;;;;;;;10355956;28;20076;-64
2021/08/29 17:26:05;;;;;;;4.22;2.63;;;;;;;;;;10348786;28;20033;-64
2021/08/29 17:31:03;;;;;;;2.83;2.15;;;;;;;;;;10310832;28;20044;-64
2021/08/29 17:36:00;;;;;;;4.40;2.88;;;;;;;;;;10319390;28;20044;-64
2021/08/29 17:40:58;;;;;;;2.87;2.17;;;;;;;;;;10326160;28;20040;-65
2021/08/29 17:45:55;;;;;;;4.37;2.27;;;;;;;;;;10329307;28;20108;-66
2021/08/29 17:50:53;;;;;;;3.57;2.90;;;;;;;;;;10310755;28;20309;-67
2021/08/29 17:55:50;;;;;;;4.33;2.00;;;;;;;;;;10327670;28;20044;-66
2021/08/29 18:00:48;;;;;;;3.73;3.20;;;;;;;;;;10321832;28;20072;-66
2021/08/29 18:05:45;;;;;;;6.03;2.88;;;;;;;;;;10298744;28;20102;-66
2021/08/29 18:10:43;;;;;;;7.77;3.20;;;;;;;;;;10299896;28;20313;-65
2021/08/29 18:15:41;;;;;;;7.03;3.73;;;;;;;;;;10314078;28;20053;-65
2021/08/29 18:20:38;;;;;;;7.20;4.03;;;;;;;;;;10323805;28;20601;-65
2021/08/29 18:25:36;;;;;;;10.07;4.25;;;;;;;;;;10306997;28;20056;-66
2021/08/29 18:30:33;;;;;;;5.90;3.80;;;;;;;;;;10326901;28;20472;-65
2021/08/29 18:35:31;;;;;;;9.37;3.57;;;;;;;;;;10361015;22;20115;-63
2021/08/29 18:40:29;;;;;;;5.37;3.17;;;;;;;;;;10357357;28;20039;-63
2021/08/29 18:45:26;;;;;;;7.77;3.23;;;;;;;;;;10371643;28;20291;-63
2021/08/29 18:50:23;;;;;;;10.37;3.83;;;;;;;;;;10358857;28;20149;-63
2021/08/29 18:55:22;;;;;;;6.47;3.40;;;;;;;;;;10375338;28;20037;-63
2021/08/29 19:00:23;;;;;;;7.03;3.63;;;;;;;;;;10354051;28;21288;-63
2021/08/29 19:05:20;;;;;;;5.88;3.58;;;;;;;;;;10343217;28;20044;-62
2021/08/29 19:10:18;;;;;;;7.38;3.10;;;;;;;;;;10346227;28;20040;-62
2021/08/29 19:15:17;;;;;;;2.95;2.63;;;;;;;;;;10337581;28;20024;-63
2021/08/29 19:20:14;;;;;;;5.00;3.00;;;;;;;;;;10329501;28;20032;-63
2021/08/29 19:25:12;;;;;;;7.07;3.73;;;;;;;;;;10357559;28;20037;-63
2021/08/29 19:30:10;;;;;;;5.23;3.67;;;;;;;;;;10359334;28;20333;-61
2021/08/29 19:35:07;;;;;;;10.15;3.60;;;;;;;;;;10344113;28;20033;-63
2021/08/29 19:40:06;;;;;;;20.97;7.93;;;;;;;;;;10355807;28;20037;-62
2021/08/29 19:45:04;;;;;;;38.55;15.75;;;;;;;;;;10352545;28;20095;-63
2021/08/29 19:50:02;;;;;;;38.17;20.08;;;;;;;;;;10364460;28;20040;-63
2021/08/29 19:55:00;;;;;;;9.50;7.38;;;;;;;;;;10351631;28;20009;-62
2021/08/29 19:59:57;;;;;;;8.00;5.80;;;;;;;;;;10358142;28;20013;-62
2021/08/29 20:04:54;;;;;;;12.17;8.30;;;;;;;;;;10371756;28;20021;-62
2021/08/29 20:09:52;;;;;;;7.90;6.00;;;;;;;;;;10360491;28;20132;-62
2021/08/29 20:14:50;;;;;;;7.27;5.70;;;;;;;;;;10339773;28;20370;-62
2021/08/29 20:19:48;;;;;;;5.22;4.10;;;;;;;;;;10344236;28;20032;-62
2021/08/29 20:24:46;;;;;;;10.20;5.78;;;;;;;;;;10359008;28;20028;-61
2021/08/29 20:29:43;;;;;;;15.23;5.37;;;;;;;;;;10369466;28;20037;-61
2021/08/29 20:34:41;;;;;;;13.73;6.00;;;;;;;;;;10348170;28;20497;-62
2021/08/29 20:39:38;;;;;;;4.40;3.40;;;;;;;;;;10352420;28;20076;-62
2021/08/29 20:44:35;;;;;;;2.97;2.50;;;;;;;;;;10368665;28;21220;-61
2021/08/29 20:49:33;;;;;;;6.27;2.73;;;;;;;;;;10345106;28;20033;-62
2021/08/29 20:54:30;;;;;;;13.37;3.83;;;;;;;;;;10361136;28;20170;-62
2021/08/29 20:59:28;;;;;;;7.33;4.17;;;;;;;;;;10362197;28;20039;-61
2021/08/29 21:04:25;;;;;;;7.83;4.87;;;;;;;;;;10356073;28;20037;-61
2021/08/29 21:09:22;;;;;;;16.00;5.63;;;;;;;;;;10364306;28;20044;-61
2021/08/29 21:14:20;;;;;;;12.20;5.90;;;;;;;;;;10348470;28;20078;-61
2021/08/29 21:19:17;;;;;;;15.00;10.77;;;;;;;;;;10364500;28;20107;-61
2021/08/29 21:24:15;;;;;;;15.87;11.77;;;;;;;;;;10352179;28;20043;-61
2021/08/29 21:29:12;;;;;;;16.27;12.13;;;;;;;;;;10356854;28;20033;-62
2021/08/29 21:34:09;;;;;;;18.67;13.13;;;;;;;;;;10364578;28;20164;-59
2021/08/29 21:39:07;;;;;;;15.93;12.30;;;;;;;;;;10363240;28;20486;-61
2021/08/29 21:44:06;;;;;;;18.95;12.15;;;;;;;;;;10350027;28;20032;-62
2021/08/29 21:49:03;;;;;;;17.23;12.10;;;;;;;;;;10338154;28;20087;-61
2021/08/29 21:54:01;;;;;;;17.47;12.37;;;;;;;;;;10357790;28;20518;-61
2021/08/29 21:58:58;;;;;;;18.73;12.87;;;;;;;;;;10363358;28;20513;-62
2021/08/29 22:03:56;;;;;;;18.67;13.17;;;;;;;;;;10373467;28;20532;-62
2021/08/29 22:08:53;;;;;;;19.57;13.20;;;;;;;;;;10368792;28;20025;-62
2021/08/29 22:13:50;;;;;;;17.63;12.93;;;;;;;;;;10361762;28;20040;-61
2021/08/29 22:18:50;;;;;;;22.00;9.60;;;;;;;;;;10365510;28;20070;-61
2021/08/29 22:23:47;;;;;;;14.75;7.03;;;;;;;;;;10364692;28;20045;-61
2021/08/29 22:28:45;;;;;;;15.80;9.50;;;;;;;;;;10365893;28;20423;-62
2021/08/29 22:33:42;;;;;;;19.02;10.85;;;;;;;;;;10369656;28;20060;-61
2021/08/29 22:38:40;;;;;;;19.27;9.43;;;;;;;;;;10368417;28;20040;-61
2021/08/29 22:43:37;;;;;;;19.00;11.17;;;;;;;;;;10358976;28;20442;-61
2021/08/29 22:48:34;;;;;;;18.33;10.20;;;;;;;;;;10369390;28;20081;-61
2021/08/29 22:53:32;;;;;;;15.90;9.90;;;;;;;;;;10367623;28;20040;-61
2021/08/29 22:58:29;;;;;;;15.83;9.57;;;;;;;;;;10347423;28;20092;-60
2021/08/29 23:03:27;;;;;;;17.47;10.80;;;;;;;;;;10364766;28;20032;-61
2021/08/29 23:08:24;;;;;;;17.23;11.17;;;;;;;;;;10358404;28;20037;-63
2021/08/29 23:13:21;;;;;;;17.50;10.93;;;;;;;;;;10369912;28;20486;-62
2021/08/29 23:18:19;;;;;;;18.57;10.87;;;;;;;;;;10336998;28;20040;-62
2021/08/29 23:23:19;;;;;;;17.73;11.20;;;;;;;;;;10366649;28;20043;-62
2021/08/29 23:28:16;;;;;;;15.60;10.60;;;;;;;;;;10367556;28;20069;-62
2021/08/29 23:33:14;;;;;;;17.83;11.43;;;;;;;;;;10354415;28;20036;-62
2021/08/29 23:38:11;;;;;;;13.70;8.10;;;;;;;;;;10356663;28;20036;-63
2021/08/29 23:43:08;;;;;;;16.57;9.87;;;;;;;;;;10346428;28;20175;-63
2021/08/29 23:48:06;;;;;;;14.07;9.20;;;;;;;;;;10361200;28;20102;-62
2021/08/29 23:53:03;;;;;;;12.70;7.47;;;;;;;;;;10359503;28;20043;-62
2021/08/29 23:58:00;;;;;;;16.63;9.83;;;;;;;;;;10364257;28;20032;-61
